sensor_id;sensor_type;location;lat;lon;timestamp;pressure;altitude;pressure_sealevel;temperature;humidity
72414;BME280;60995;52.154;4.498;2022-08-14T00:01:10;101198.19;;;23.16;52.03
72414;BME280;60995;52.154;4.498;2022-08-14T00:03:29;101193.91;;;23.13;52.20
72414;BME280;60995;52.154;4.498;2022-08-14T00:05:49;101186.03;;;23.10;52.21
72414;BME280;60995;52.154;4.498;2022-08-14T00:08:08;101183.28;;;23.17;52.32
72414;BME280;60995;52.154;4.498;2022-08-14T00:10:24;101175.81;;;23.11;52.53
72414;BME280;60995;52.154;4.498;2022-08-14T00:12:45;101180.72;;;23.09;52.80
72414;BME280;60995;52.154;4.498;2022-08-14T00:15:10;101184.72;;;23.00;53.34
72414;BME280;60995;52.154;4.498;2022-08-14T00:17:39;101180.28;;;22.99;53.47
72414;BME280;60995;52.154;4.498;2022-08-14T00:19:56;101184.31;;;22.96;53.44
72414;BME280;60995;52.154;4.498;2022-08-14T00:22:12;101180.25;;;22.85;54.05
72414;BME280;60995;52.154;4.498;2022-08-14T00:24:33;101173.44;;;22.88;54.04
72414;BME280;60995;52.154;4.498;2022-08-14T00:26:49;101177.69;;;22.84;54.29
72414;BME280;60995;52.154;4.498;2022-08-14T00:29:05;101170.06;;;22.92;54.17
72414;BME280;60995;52.154;4.498;2022-08-14T00:31:22;101166.63;;;22.70;54.95
72414;BME280;60995;52.154;4.498;2022-08-14T00:33:39;101168.13;;;22.79;54.81
72414;BME280;60995;52.154;4.498;2022-08-14T00:35:55;101158.13;;;22.85;54.74
72414;BME280;60995;52.154;4.498;2022-08-14T00:38:11;101160.03;;;22.78;54.79
72414;BME280;60995;52.154;4.498;2022-08-14T00:40:28;101165.34;;;22.73;55.24
72414;BME280;60995;52.154;4.498;2022-08-14T00:42:44;101157.69;;;22.75;54.92
72414;BME280;60995;52.154;4.498;2022-08-14T00:45:01;101159.81;;;22.73;54.86
72414;BME280;60995;52.154;4.498;2022-08-14T00:47:18;101156.41;;;22.71;54.69
72414;BME280;60995;52.154;4.498;2022-08-14T00:49:34;101157.06;;;22.66;54.50
72414;BME280;60995;52.154;4.498;2022-08-14T00:51:51;101155.13;;;22.80;54.19
72414;BME280;60995;52.154;4.498;2022-08-14T00:54:07;101153.41;;;22.66;54.76
72414;BME280;60995;52.154;4.498;2022-08-14T00:56:24;101144.50;;;22.70;54.29
72414;BME280;60995;52.154;4.498;2022-08-14T00:58:41;101138.53;;;22.80;54.11
72414;BME280;60995;52.154;4.498;2022-08-14T01:01:08;101136.41;;;22.82;53.94
72414;BME280;60995;52.154;4.498;2022-08-14T01:03:27;101136.63;;;22.80;53.99
72414;BME280;60995;52.154;4.498;2022-08-14T01:05:44;101135.16;;;22.78;54.13
72414;BME280;60995;52.154;4.498;2022-08-14T01:08:04;101138.53;;;22.67;54.55
72414;BME280;60995;52.154;4.498;2022-08-14T01:10:21;101135.09;;;22.58;54.70
72414;BME280;60995;52.154;4.498;2022-08-14T01:13:00;101122.75;;;22.54;54.95
72414;BME280;60995;52.154;4.498;2022-08-14T01:15:16;101127.03;;;22.56;55.07
72414;BME280;60995;52.154;4.498;2022-08-14T01:17:36;101123.41;;;22.49;55.30
72414;BME280;60995;52.154;4.498;2022-08-14T01:20:11;101115.75;;;22.58;55.23
72414;BME280;60995;52.154;4.498;2022-08-14T01:22:47;101110.84;;;22.40;55.87
72414;BME280;60995;52.154;4.498;2022-08-14T01:25:06;101110.84;;;22.40;56.01
72414;BME280;60995;52.154;4.498;2022-08-14T01:27:24;101107.16;;;22.33;56.49
72414;BME280;60995;52.154;4.498;2022-08-14T01:29:45;101108.66;;;22.28;56.43
72414;BME280;60995;52.154;4.498;2022-08-14T01:32:04;101098.88;;;22.33;56.05
72414;BME280;60995;52.154;4.498;2022-08-14T01:34:21;101099.72;;;22.26;56.15
72414;BME280;60995;52.154;4.498;2022-08-14T01:36:40;101100.38;;;22.35;55.58
72414;BME280;60995;52.154;4.498;2022-08-14T01:38:57;101103.13;;;22.35;55.68
72414;BME280;60995;52.154;4.498;2022-08-14T01:41:18;101095.06;;;22.34;55.26
72414;BME280;60995;52.154;4.498;2022-08-14T01:44:04;101100.19;;;22.37;55.45
72414;BME280;60995;52.154;4.498;2022-08-14T01:46:23;101086.13;;;22.31;55.36
72414;BME280;60995;52.154;4.498;2022-08-14T01:48:40;101082.28;;;22.33;55.09
72414;BME280;60995;52.154;4.498;2022-08-14T01:50:59;101083.78;;;22.35;54.90
72414;BME280;60995;52.154;4.498;2022-08-14T01:53:18;101084.25;;;22.39;55.08
72414;BME280;60995;52.154;4.498;2022-08-14T01:55:35;101090.34;;;22.27;55.39
72414;BME280;60995;52.154;4.498;2022-08-14T01:57:53;101093.34;;;22.26;55.38
72414;BME280;60995;52.154;4.498;2022-08-14T02:00:10;101089.09;;;22.23;55.50
72414;BME280;60995;52.154;4.498;2022-08-14T02:02:33;101086.31;;;22.17;55.58
72414;BME280;60995;52.154;4.498;2022-08-14T02:04:49;101089.50;;;22.20;55.61
72414;BME280;60995;52.154;4.498;2022-08-14T02:07:07;101078.41;;;22.13;55.17
72414;BME280;60995;52.154;4.498;2022-08-14T02:09:24;101080.13;;;22.14;55.37
72414;BME280;60995;52.154;4.498;2022-08-14T02:11:42;101080.78;;;22.17;55.18
72414;BME280;60995;52.154;4.498;2022-08-14T02:14:01;101078.25;;;22.28;54.88
72414;BME280;60995;52.154;4.498;2022-08-14T02:16:21;101072.28;;;22.18;55.09
72414;BME280;60995;52.154;4.498;2022-08-14T02:18:44;101073.53;;;22.09;55.31
72414;BME280;60995;52.154;4.498;2022-08-14T02:21:01;101073.75;;;22.14;54.91
72414;BME280;60995;52.154;4.498;2022-08-14T02:23:19;101065.63;;;22.06;54.85
72414;BME280;60995;52.154;4.498;2022-08-14T02:25:35;101066.88;;;21.96;55.53
72414;BME280;60995;52.154;4.498;2022-08-14T02:27:52;101070.69;;;21.89;55.53
72414;BME280;60995;52.154;4.498;2022-08-14T02:30:12;101062.84;;;21.92;55.19
72414;BME280;60995;52.154;4.498;2022-08-14T02:32:30;101068.59;;;21.91;55.03
72414;BME280;60995;52.154;4.498;2022-08-14T02:34:49;101062.63;;;21.87;55.28
72414;BME280;60995;52.154;4.498;2022-08-14T02:37:08;101067.28;;;21.87;55.49
72414;BME280;60995;52.154;4.498;2022-08-14T02:39:26;101065.16;;;21.89;55.33
72414;BME280;60995;52.154;4.498;2022-08-14T02:41:44;101061.31;;;21.76;55.71
72414;BME280;60995;52.154;4.498;2022-08-14T02:44:08;101063.03;;;21.84;55.54
72414;BME280;60995;52.154;4.498;2022-08-14T02:46:25;101053.63;;;21.72;55.67
72414;BME280;60995;52.154;4.498;2022-08-14T02:48:42;101056.63;;;21.77;55.47
72414;BME280;60995;52.154;4.498;2022-08-14T02:50:59;101047.88;;;21.67;55.69
72414;BME280;60995;52.154;4.498;2022-08-14T02:53:15;101053.63;;;21.72;55.86
72414;BME280;60995;52.154;4.498;2022-08-14T02:55:32;101047.72;;;21.75;55.91
72414;BME280;60995;52.154;4.498;2022-08-14T02:57:49;101049.41;;;21.76;55.85
72414;BME280;60995;52.154;4.498;2022-08-14T03:00:09;101044.47;;;21.64;56.55
72414;BME280;60995;52.154;4.498;2022-08-14T03:02:27;101039.16;;;21.56;56.81
72414;BME280;60995;52.154;4.498;2022-08-14T03:04:49;101046.91;;;21.46;57.51
72414;BME280;60995;52.154;4.498;2022-08-14T03:07:09;101042.28;;;21.53;57.19
72414;BME280;60995;52.154;4.498;2022-08-14T03:09:26;101043.91;;;21.41;57.46
72414;BME280;60995;52.154;4.498;2022-08-14T03:11:42;101037.75;;;21.39;57.93
72414;BME280;60995;52.154;4.498;2022-08-14T03:14:02;101029.88;;;21.36;58.04
72414;BME280;60995;52.154;4.498;2022-08-14T03:16:22;101027.66;;;21.18;58.73
72414;BME280;60995;52.154;4.498;2022-08-14T03:18:42;101034.91;;;21.25;58.71
72414;BME280;60995;52.154;4.498;2022-08-14T03:21:03;101026.19;;;21.22;58.52
72414;BME280;60995;52.154;4.498;2022-08-14T03:23:20;101026.56;;;21.12;58.76
72414;BME280;60995;52.154;4.498;2022-08-14T03:25:36;101028.22;;;21.06;59.01
72414;BME280;60995;52.154;4.498;2022-08-14T03:27:53;101023.94;;;21.04;59.00
72414;BME280;60995;52.154;4.498;2022-08-14T03:30:14;101023.16;;;21.10;58.51
72414;BME280;60995;52.154;4.498;2022-08-14T03:32:31;101023.56;;;21.07;58.95
72414;BME280;60995;52.154;4.498;2022-08-14T03:34:50;101015.41;;;20.92;58.90
72414;BME280;60995;52.154;4.498;2022-08-14T03:37:06;101027.34;;;20.99;58.76
72414;BME280;60995;52.154;4.498;2022-08-14T03:39:28;101020.56;;;21.02;58.83
72414;BME280;60995;52.154;4.498;2022-08-14T03:41:45;101012.47;;;21.00;58.69
72414;BME280;60995;52.154;4.498;2022-08-14T03:44:05;101022.56;;;20.86;59.32
72414;BME280;60995;52.154;4.498;2022-08-14T03:46:24;101010.63;;;20.79;59.27
72414;BME280;60995;52.154;4.498;2022-08-14T03:48:43;101014.25;;;20.79;59.21
72414;BME280;60995;52.154;4.498;2022-08-14T03:51:00;101016.00;;;20.87;59.14
72414;BME280;60995;52.154;4.498;2022-08-14T03:53:19;101013.63;;;20.84;59.31
72414;BME280;60995;52.154;4.498;2022-08-14T03:55:36;101012.34;;;20.80;59.05
72414;BME280;60995;52.154;4.498;2022-08-14T03:57:56;101020.38;;;20.75;59.83
72414;BME280;60995;52.154;4.498;2022-08-14T04:00:14;101010.50;;;20.65;60.01
72414;BME280;60995;52.154;4.498;2022-08-14T04:02:34;101017.88;;;20.58;60.33
72414;BME280;60995;52.154;4.498;2022-08-14T04:04:51;101015.50;;;20.55;60.58
72414;BME280;60995;52.154;4.498;2022-08-14T04:07:08;101010.31;;;20.67;60.08
72414;BME280;60995;52.154;4.498;2022-08-14T04:09:26;101009.84;;;20.63;60.30
72414;BME280;60995;52.154;4.498;2022-08-14T04:11:44;101013.00;;;20.60;60.46
72414;BME280;60995;52.154;4.498;2022-08-14T04:14:06;101014.22;;;20.51;60.76
72414;BME280;60995;52.154;4.498;2022-08-14T04:16:23;101013.91;;;20.67;60.38
72414;BME280;60995;52.154;4.498;2022-08-14T04:18:41;101007.34;;;20.69;59.74
72414;BME280;60995;52.154;4.498;2022-08-14T04:21:00;101002.00;;;20.60;60.28
72414;BME280;60995;52.154;4.498;2022-08-14T04:23:17;101010.84;;;20.77;60.04
72414;BME280;60995;52.154;4.498;2022-08-14T04:25:33;101003.41;;;20.49;60.99
72414;BME280;60995;52.154;4.498;2022-08-14T04:27:51;101007.91;;;20.57;60.73
72414;BME280;60995;52.154;4.498;2022-08-14T04:30:08;101002.66;;;20.62;60.43
72414;BME280;60995;52.154;4.498;2022-08-14T04:32:25;100999.56;;;20.50;60.81
72414;BME280;60995;52.154;4.498;2022-08-14T04:34:41;100997.72;;;20.58;60.69
72414;BME280;60995;52.154;4.498;2022-08-14T04:36:57;100997.00;;;20.71;60.23
72414;BME280;60995;52.154;4.498;2022-08-14T04:39:32;100994.88;;;20.73;59.79
72414;BME280;60995;52.154;4.498;2022-08-14T04:42:06;100985.78;;;20.50;60.72
72414;BME280;60995;52.154;4.498;2022-08-14T04:44:41;100993.13;;;20.65;60.15
72414;BME280;60995;52.154;4.498;2022-08-14T04:46:58;100987.53;;;20.80;59.44
72414;BME280;60995;52.154;4.498;2022-08-14T04:49:33;100981.97;;;20.73;60.01
72414;BME280;60995;52.154;4.498;2022-08-14T04:51:51;100987.41;;;20.66;60.24
72414;BME280;60995;52.154;4.498;2022-08-14T04:54:07;100976.13;;;20.61;60.22
72414;BME280;60995;52.154;4.498;2022-08-14T04:56:25;100976.25;;;20.75;60.02
72414;BME280;60995;52.154;4.498;2022-08-14T04:58:42;100978.41;;;20.79;60.03
72414;BME280;60995;52.154;4.498;2022-08-14T05:01:00;100978.41;;;20.79;60.01
72414;BME280;60995;52.154;4.498;2022-08-14T05:03:30;100981.69;;;20.96;59.07
72414;BME280;60995;52.154;4.498;2022-08-14T05:05:49;100981.94;;;21.02;59.08
72414;BME280;60995;52.154;4.498;2022-08-14T05:08:10;100984.19;;;20.85;59.40
72414;BME280;60995;52.154;4.498;2022-08-14T05:10:29;100974.25;;;20.97;59.31
72414;BME280;60995;52.154;4.498;2022-08-14T05:12:45;100967.31;;;21.08;58.99
72414;BME280;60995;52.154;4.498;2022-08-14T05:15:01;100975.91;;;20.85;59.48
72414;BME280;60995;52.154;4.498;2022-08-14T05:17:18;100967.91;;;20.96;59.36
72414;BME280;60995;52.154;4.498;2022-08-14T05:19:34;100971.72;;;20.95;59.23
72414;BME280;60995;52.154;4.498;2022-08-14T05:21:50;100974.00;;;21.27;58.48
72414;BME280;60995;52.154;4.498;2022-08-14T05:24:11;100966.09;;;21.17;58.94
72414;BME280;60995;52.154;4.498;2022-08-14T05:26:27;100971.97;;;21.01;59.25
72414;BME280;60995;52.154;4.498;2022-08-14T05:28:44;100974.38;;;21.17;58.78
72414;BME280;60995;52.154;4.498;2022-08-14T05:31:03;100966.41;;;21.36;58.64
72414;BME280;60995;52.154;4.498;2022-08-14T05:33:26;100966.88;;;21.46;57.62
72414;BME280;60995;52.154;4.498;2022-08-14T05:35:44;100963.44;;;21.44;57.94
72414;BME280;60995;52.154;4.498;2022-08-14T05:38:07;100957.03;;;21.37;57.99
72414;BME280;60995;52.154;4.498;2022-08-14T05:40:24;100961.66;;;21.64;57.22
72414;BME280;60995;52.154;4.498;2022-08-14T05:42:40;100950.00;;;21.89;56.42
72414;BME280;60995;52.154;4.498;2022-08-14T05:44:57;100954.22;;;21.72;57.01
72414;BME280;60995;52.154;4.498;2022-08-14T05:47:13;100944.94;;;22.00;55.99
72414;BME280;60995;52.154;4.498;2022-08-14T05:49:30;100955.13;;;22.06;55.67
72414;BME280;60995;52.154;4.498;2022-08-14T05:51:46;100958.13;;;22.24;55.69
72414;BME280;60995;52.154;4.498;2022-08-14T05:54:03;100953.88;;;22.42;54.57
72414;BME280;60995;52.154;4.498;2022-08-14T05:56:22;100954.75;;;22.56;53.91
72414;BME280;60995;52.154;4.498;2022-08-14T05:58:42;100952.81;;;22.70;53.99
72414;BME280;60995;52.154;4.498;2022-08-14T06:00:59;100951.28;;;22.87;53.30
72414;BME280;60995;52.154;4.498;2022-08-14T06:03:18;100958.66;;;23.20;52.42
72414;BME280;60995;52.154;4.498;2022-08-14T06:05:36;100955.97;;;23.91;50.27
72414;BME280;60995;52.154;4.498;2022-08-14T06:07:56;100956.47;;;25.56;45.79
72414;BME280;60995;52.154;4.498;2022-08-14T06:10:14;100944.41;;;26.95;42.41
72414;BME280;60995;52.154;4.498;2022-08-14T06:12:30;100952.72;;;27.88;40.48
72414;BME280;60995;52.154;4.498;2022-08-14T06:14:47;100953.78;;;29.45;37.41
72414;BME280;60995;52.154;4.498;2022-08-14T06:17:03;100953.84;;;29.28;37.59
72414;BME280;60995;52.154;4.498;2022-08-14T06:19:20;100949.59;;;31.10;33.75
72414;BME280;60995;52.154;4.498;2022-08-14T06:21:39;100951.00;;;32.38;32.11
72414;BME280;60995;52.154;4.498;2022-08-14T06:23:56;100939.47;;;34.36;28.84
72414;BME280;60995;52.154;4.498;2022-08-14T06:26:12;100950.00;;;33.20;30.17
72414;BME280;60995;52.154;4.498;2022-08-14T06:28:28;100948.41;;;33.64;29.93
72414;BME280;60995;52.154;4.498;2022-08-14T06:30:45;100948.88;;;33.82;29.02
72414;BME280;60995;52.154;4.498;2022-08-14T06:33:02;100929.16;;;34.80;28.23
72414;BME280;60995;52.154;4.498;2022-08-14T06:35:20;100936.25;;;36.54;25.23
72414;BME280;60995;52.154;4.498;2022-08-14T06:40:12;100937.91;;;35.27;27.22
72414;BME280;60995;52.154;4.498;2022-08-14T06:42:30;100936.56;;;35.43;26.96
72414;BME280;60995;52.154;4.498;2022-08-14T06:44:47;100936.50;;;36.06;26.15
72414;BME280;60995;52.154;4.498;2022-08-14T06:47:04;100945.13;;;35.57;26.81
72414;BME280;60995;52.154;4.498;2022-08-14T06:49:26;100937.69;;;36.52;25.24
72414;BME280;60995;52.154;4.498;2022-08-14T06:51:42;100933.47;;;38.34;23.06
72414;BME280;60995;52.154;4.498;2022-08-14T06:54:01;100925.94;;;38.92;22.55
72414;BME280;60995;52.154;4.498;2022-08-14T06:56:17;100929.09;;;37.82;23.53
72414;BME280;60995;52.154;4.498;2022-08-14T06:58:34;100925.38;;;35.96;26.17
72414;BME280;60995;52.154;4.498;2022-08-14T07:00:50;100916.16;;;32.65;31.08
72414;BME280;60995;52.154;4.498;2022-08-14T07:03:25;100917.72;;;34.07;29.42
72414;BME280;60995;52.154;4.498;2022-08-14T07:05:59;100905.88;;;34.69;28.08
72414;BME280;60995;52.154;4.498;2022-08-14T07:08:26;100913.66;;;33.44;30.35
72414;BME280;60995;52.154;4.498;2022-08-14T07:10:46;100902.31;;;36.07;26.72
72414;BME280;60995;52.154;4.498;2022-08-14T07:13:05;100906.94;;;36.36;25.82
72414;BME280;60995;52.154;4.498;2022-08-14T07:15:21;100901.59;;;37.83;24.50
72414;BME280;60995;52.154;4.498;2022-08-14T07:17:48;100898.22;;;36.94;25.56
72414;BME280;60995;52.154;4.498;2022-08-14T07:20:06;100900.88;;;36.71;25.67
72414;BME280;60995;52.154;4.498;2022-08-14T07:22:23;100912.41;;;37.30;25.48
72414;BME280;60995;52.154;4.498;2022-08-14T07:24:40;100912.94;;;37.18;25.27
72414;BME280;60995;52.154;4.498;2022-08-14T07:26:56;100907.44;;;36.05;26.24
72414;BME280;60995;52.154;4.498;2022-08-14T07:29:12;100908.16;;;35.97;26.37
72414;BME280;60995;52.154;4.498;2022-08-14T07:31:29;100911.78;;;34.97;27.64
72414;BME280;60995;52.154;4.498;2022-08-14T07:33:47;100910.66;;;35.80;26.36
72414;BME280;60995;52.154;4.498;2022-08-14T07:36:06;100911.59;;;34.29;27.49
72414;BME280;60995;52.154;4.498;2022-08-14T07:38:25;100912.72;;;35.55;26.44
72414;BME280;60995;52.154;4.498;2022-08-14T07:40:45;100914.44;;;34.29;27.56
72414;BME280;60995;52.154;4.498;2022-08-14T07:43:03;100913.91;;;36.86;24.92
72414;BME280;60995;52.154;4.498;2022-08-14T07:45:19;100909.56;;;36.47;24.98
72414;BME280;60995;52.154;4.498;2022-08-14T07:47:40;100905.75;;;36.04;25.84
72414;BME280;60995;52.154;4.498;2022-08-14T07:50:03;100909.91;;;37.15;24.56
72414;BME280;60995;52.154;4.498;2022-08-14T07:52:28;100921.22;;;36.73;24.88
72414;BME280;60995;52.154;4.498;2022-08-14T07:54:45;100902.84;;;36.09;25.76
72414;BME280;60995;52.154;4.498;2022-08-14T07:57:01;100906.78;;;35.95;25.75
72414;BME280;60995;52.154;4.498;2022-08-14T07:59:18;100898.88;;;36.10;26.26
72414;BME280;60995;52.154;4.498;2022-08-14T08:01:37;100903.88;;;37.58;24.07
72414;BME280;60995;52.154;4.498;2022-08-14T08:03:55;100901.19;;;39.85;21.20
72414;BME280;60995;52.154;4.498;2022-08-14T08:06:15;100888.91;;;39.06;22.40
72414;BME280;60995;52.154;4.498;2022-08-14T08:08:31;100895.78;;;38.11;23.15
72414;BME280;60995;52.154;4.498;2022-08-14T08:10:48;100898.16;;;38.40;22.93
72414;BME280;60995;52.154;4.498;2022-08-14T08:13:13;100883.03;;;37.26;24.11
72414;BME280;60995;52.154;4.498;2022-08-14T08:15:34;100880.97;;;36.34;25.65
72414;BME280;60995;52.154;4.498;2022-08-14T08:17:55;100875.34;;;36.48;25.89
72414;BME280;60995;52.154;4.498;2022-08-14T08:20:19;100872.44;;;36.95;24.93
72414;BME280;60995;52.154;4.498;2022-08-14T08:22:43;100878.25;;;37.13;24.35
72414;BME280;60995;52.154;4.498;2022-08-14T08:24:59;100877.88;;;38.24;23.15
72414;BME280;60995;52.154;4.498;2022-08-14T08:27:17;100876.34;;;37.95;23.91
72414;BME280;60995;52.154;4.498;2022-08-14T08:29:36;100866.53;;;38.87;22.69
72414;BME280;60995;52.154;4.498;2022-08-14T08:31:53;100872.69;;;37.95;23.57
72414;BME280;60995;52.154;4.498;2022-08-14T08:34:09;100873.88;;;36.79;24.92
72414;BME280;60995;52.154;4.498;2022-08-14T08:36:26;100870.66;;;38.41;23.33
72414;BME280;60995;52.154;4.498;2022-08-14T08:38:42;100871.75;;;38.62;22.62
72414;BME280;60995;52.154;4.498;2022-08-14T08:41:00;100864.00;;;37.68;23.48
72414;BME280;60995;52.154;4.498;2022-08-14T08:43:32;100875.63;;;38.12;23.57
72414;BME280;60995;52.154;4.498;2022-08-14T08:48:20;100867.41;;;40.19;20.74
72414;BME280;60995;52.154;4.498;2022-08-14T08:50:38;100857.44;;;40.90;19.74
72414;BME280;60995;52.154;4.498;2022-08-14T08:53:05;100860.75;;;40.92;19.80
72414;BME280;60995;52.154;4.498;2022-08-14T08:55:28;100859.78;;;39.76;20.74
72414;BME280;60995;52.154;4.498;2022-08-14T08:57:53;100857.06;;;41.00;19.92
72414;BME280;60995;52.154;4.498;2022-08-14T09:00:16;100848.88;;;40.13;20.76
72414;BME280;60995;52.154;4.498;2022-08-14T09:02:33;100858.38;;;40.26;20.51
72414;BME280;60995;52.154;4.498;2022-08-14T09:04:49;100856.38;;;40.95;19.62
72414;BME280;60995;52.154;4.498;2022-08-14T09:07:07;100856.66;;;37.90;22.89
72414;BME280;60995;52.154;4.498;2022-08-14T09:09:28;100849.50;;;37.93;23.01
72414;BME280;60995;52.154;4.498;2022-08-14T09:11:47;100851.47;;;38.78;22.68
72414;BME280;60995;52.154;4.498;2022-08-14T09:14:04;100853.94;;;39.81;22.07
72414;BME280;60995;52.154;4.498;2022-08-14T09:16:22;100843.53;;;39.15;22.40
72414;BME280;60995;52.154;4.498;2022-08-14T09:18:40;100837.84;;;35.43;26.83
72414;BME280;60995;52.154;4.498;2022-08-14T09:20:56;100848.97;;;38.45;23.33
72414;BME280;60995;52.154;4.498;2022-08-14T09:23:13;100839.25;;;38.28;23.47
72414;BME280;60995;52.154;4.498;2022-08-14T09:25:30;100841.47;;;38.40;23.41
72414;BME280;60995;52.154;4.498;2022-08-14T09:27:47;100842.78;;;38.34;23.58
72414;BME280;60995;52.154;4.498;2022-08-14T09:30:07;100841.47;;;38.89;22.76
72414;BME280;60995;52.154;4.498;2022-08-14T09:32:31;100843.34;;;37.90;24.25
72414;BME280;60995;52.154;4.498;2022-08-14T09:35:20;100840.03;;;39.97;21.88
72414;BME280;60995;52.154;4.498;2022-08-14T09:37:58;100841.66;;;36.94;25.39
72414;BME280;60995;52.154;4.498;2022-08-14T09:40:41;100824.75;;;36.33;26.25
72414;BME280;60995;52.154;4.498;2022-08-14T09:45:57;100827.25;;;38.31;23.89
72414;BME280;60995;52.154;4.498;2022-08-14T09:48:16;100823.63;;;37.26;25.09
72414;BME280;60995;52.154;4.498;2022-08-14T09:50:45;100813.97;;;36.21;26.53
72414;BME280;60995;52.154;4.498;2022-08-14T09:53:06;100815.00;;;39.02;23.37
72414;BME280;60995;52.154;4.498;2022-08-14T09:55:24;100816.41;;;36.41;26.35
72414;BME280;60995;52.154;4.498;2022-08-14T09:57:42;100805.88;;;37.12;25.50
72414;BME280;60995;52.154;4.498;2022-08-14T10:00:10;100801.63;;;38.36;23.71
72414;BME280;60995;52.154;4.498;2022-08-14T10:02:31;100800.59;;;37.78;24.39
72414;BME280;60995;52.154;4.498;2022-08-14T10:05:26;100807.84;;;37.25;24.94
72414;BME280;60995;52.154;4.498;2022-08-14T10:07:49;100788.63;;;39.11;23.02
72414;BME280;60995;52.154;4.498;2022-08-14T10:10:07;100788.53;;;37.27;24.80
72414;BME280;60995;52.154;4.498;2022-08-14T10:12:24;100790.28;;;38.36;23.79
72414;BME280;60995;52.154;4.498;2022-08-14T10:14:41;100788.13;;;39.44;22.31
72414;BME280;60995;52.154;4.498;2022-08-14T10:16:59;100782.81;;;39.42;22.36
72414;BME280;60995;52.154;4.498;2022-08-14T10:19:18;100781.00;;;40.20;21.21
72414;BME280;60995;52.154;4.498;2022-08-14T10:21:40;100783.09;;;39.58;22.15
72414;BME280;60995;52.154;4.498;2022-08-14T10:23:59;100784.91;;;38.84;23.10
72414;BME280;60995;52.154;4.498;2022-08-14T10:26:17;100775.88;;;37.24;24.94
72414;BME280;60995;52.154;4.498;2022-08-14T10:28:47;100768.09;;;39.14;22.62
72414;BME280;60995;52.154;4.498;2022-08-14T10:31:24;100776.75;;;39.09;22.66
72414;BME280;60995;52.154;4.498;2022-08-14T10:33:57;100772.25;;;37.69;24.13
72414;BME280;60995;52.154;4.498;2022-08-14T10:36:26;100771.63;;;36.63;25.31
72414;BME280;60995;52.154;4.498;2022-08-14T10:38:55;100774.09;;;36.92;25.23
72414;BME280;60995;52.154;4.498;2022-08-14T10:41:14;100773.78;;;37.30;24.58
72414;BME280;60995;52.154;4.498;2022-08-14T10:43:32;100771.66;;;36.99;25.06
72414;BME280;60995;52.154;4.498;2022-08-14T10:45:57;100757.59;;;37.99;24.04
72414;BME280;60995;52.154;4.498;2022-08-14T10:48:16;100764.50;;;36.37;25.93
72414;BME280;60995;52.154;4.498;2022-08-14T10:50:35;100747.00;;;36.07;26.54
72414;BME280;60995;52.154;4.498;2022-08-14T10:52:57;100747.91;;;37.68;24.30
72414;BME280;60995;52.154;4.498;2022-08-14T10:55:15;100757.22;;;36.87;24.89
72414;BME280;60995;52.154;4.498;2022-08-14T10:57:53;100761.94;;;37.28;24.65
72414;BME280;60995;52.154;4.498;2022-08-14T11:00:26;100751.06;;;39.14;22.10
72414;BME280;60995;52.154;4.498;2022-08-14T11:03:19;100754.66;;;37.13;23.72
72414;BME280;60995;52.154;4.498;2022-08-14T11:05:44;100771.28;;;37.51;23.80
72414;BME280;60995;52.154;4.498;2022-08-14T11:08:03;100747.28;;;38.03;22.88
72414;BME280;60995;52.154;4.498;2022-08-14T11:10:53;100754.78;;;37.45;23.36
72414;BME280;60995;52.154;4.498;2022-08-14T11:13:25;100752.22;;;37.43;23.69
72414;BME280;60995;52.154;4.498;2022-08-14T11:15:43;100743.22;;;38.76;22.14
72414;BME280;60995;52.154;4.498;2022-08-14T11:18:03;100745.66;;;38.11;22.61
72414;BME280;60995;52.154;4.498;2022-08-14T11:20:23;100747.44;;;37.44;22.47
72414;BME280;60995;52.154;4.498;2022-08-14T11:22:41;100744.84;;;35.71;24.66
72414;BME280;60995;52.154;4.498;2022-08-14T11:25:03;100734.78;;;36.40;24.73
72414;BME280;60995;52.154;4.498;2022-08-14T11:27:22;100724.72;;;36.34;24.22
72414;BME280;60995;52.154;4.498;2022-08-14T11:29:41;100740.78;;;35.44;25.34
72414;BME280;60995;52.154;4.498;2022-08-14T11:31:58;100732.38;;;36.61;23.85
72414;BME280;60995;52.154;4.498;2022-08-14T11:34:15;100735.53;;;36.46;23.72
72414;BME280;60995;52.154;4.498;2022-08-14T11:36:39;100741.50;;;37.54;21.95
72414;BME280;60995;52.154;4.498;2022-08-14T11:38:57;100736.34;;;37.79;21.91
72414;BME280;60995;52.154;4.498;2022-08-14T11:41:20;100740.09;;;36.83;21.87
72414;BME280;60995;52.154;4.498;2022-08-14T11:44:04;100735.44;;;35.24;23.55
72414;BME280;60995;52.154;4.498;2022-08-14T11:46:23;100738.78;;;36.39;22.27
72414;BME280;60995;52.154;4.498;2022-08-14T11:49:06;100741.13;;;36.73;22.20
72414;BME280;60995;52.154;4.498;2022-08-14T11:51:54;100744.91;;;36.69;22.28
72414;BME280;60995;52.154;4.498;2022-08-14T11:54:22;100722.50;;;38.09;21.25
72414;BME280;60995;52.154;4.498;2022-08-14T11:56:42;100718.66;;;38.13;21.13
72414;BME280;60995;52.154;4.498;2022-08-14T11:59:04;100715.56;;;37.61;21.89
72414;BME280;60995;52.154;4.498;2022-08-14T12:01:56;100711.75;;;37.88;20.76
72414;BME280;60995;52.154;4.498;2022-08-14T12:04:31;100725.03;;;37.11;20.61
72414;BME280;60995;52.154;4.498;2022-08-14T12:06:53;100708.19;;;35.99;20.88
72414;BME280;60995;52.154;4.498;2022-08-14T12:09:33;100708.53;;;36.12;20.73
72414;BME280;60995;52.154;4.498;2022-08-14T12:11:51;100709.66;;;36.10;20.14
72414;BME280;60995;52.154;4.498;2022-08-14T12:14:35;100689.69;;;34.75;21.93
72414;BME280;60995;52.154;4.498;2022-08-14T12:17:07;100701.41;;;36.00;20.31
72414;BME280;60995;52.154;4.498;2022-08-14T12:19:27;100689.66;;;36.49;20.20
72414;BME280;60995;52.154;4.498;2022-08-14T12:22:36;100685.31;;;35.87;21.58
72414;BME280;60995;52.154;4.498;2022-08-14T12:24:55;100680.91;;;36.08;20.85